Latest Coastal Weather Observations for Kowanyama

IDQ60701

Issued at 8:45 pm EST Tuesday 21 October 2014 (issued every 10 minutes, with the page automatically refreshed every 10 minutes)

About coastal observations | Map of coastal stations | Coastal observations for QLD | Marine services | Other Formats
Station Details ID: 029038 Name: KOWANYAMA AIRPORT Lat: -15.48 Lon: 141.75 Height: 9.6 m
Data from the previous 72 hours. | See also: Recent months at Kowanyama
Date/Time
EST
Temp

°C
Wind Pressure Rain
since 9am
mm
Weather Cloud Vis
km
Sea
Height
m
Swell
Dir
 
Speed
knots
Gust
knots
hPa Trend Height
m
Period
s
Dir
21/08:30pm 25.6 WSW 4 6 1014.1 - 0.0 - - - - - - -
21/08:00pm 26.1 SW 6 10 1013.9 - 0.0 - - - - - - -
21/07:30pm 26.7 SW 8 13 1013.5 - 0.0 - - - - - - -
21/07:00pm 27.4 SW 10 13 1013.2 - 0.0 - - - - - - -
21/06:30pm 28.3 WSW 10 14 1012.9 - 0.0 - - - - - - -
21/06:00pm 29.8 WSW 9 15 1012.6 - 0.0 - - - - - - -
21/05:30pm 31.2 WSW 13 17 1012.2 - 0.0 - - - - - - -
21/05:00pm 34.8 SE 5 9 1011.8 - 0.0 - - - - - - -
21/04:30pm 34.9 SE 9 11 1011.5 - 0.0 - - - - - - -
21/04:00pm 35.1 E 5 11 1011.5 - 0.0 - - - - - - -
21/03:30pm 34.6 SE 8 16 1011.8 - 0.0 - - - - - - -
21/03:00pm 36.2 SE 10 14 1012.0 - 0.0 - - - - - - -
21/02:30pm 35.1 SSW 8 11 1012.4 - 0.0 - - - - - - -
21/02:00pm 34.8 S 7 12 1012.7 - 0.0 - - - - - - -
21/01:30pm 33.7 SSE 8 15 1013.4 - 0.0 - - - - - - -
21/01:00pm 33.8 ESE 8 16 1013.9 - 0.0 - - - - - - -
21/12:30pm 32.9 SSE 9 15 1014.5 - 0.0 - - - - - - -
21/12:00pm 32.3 ESE 8 18 1015.2 - 0.0 - Mostly clear - - - - -
21/11:30am 31.9 E 6 10 1015.5 - 0.0 - - - - - - -
21/11:00am 31.2 E 7 13 1015.8 - 0.0 - - - - - - -
21/10:30am 30.2 ESE 10 16 1016.2 - 0.0 - - - - - - -
21/10:00am 28.7 ESE 11 17 1016.7 - 0.0 - - - - - - -
21/09:30am 27.9 E 10 16 1016.9 - 0.0 - - - - - - -
21/09:00am 27.3 E 10 16 1016.9 - 0.0 - - - - - - -
21/08:30am 26.4 ESE 9 13 1016.9 - 0.0 - - - - - - -
21/08:00am 25.6 E 8 12 1016.8 - 0.0 - - - - - - -
21/07:30am 24.6 E 9 15 1016.6 - 0.0 - - - - - - -
21/07:00am 23.9 E 5 8 1016.3 - 0.0 - - - - - - -
21/06:30am 23.2 E 5 7 1016.2 - 0.0 - - - - - - -
21/06:00am 23.2 E 5 8 1016.0 - 0.0 - - - - - - -
21/05:30am 23.5 E 4 6 1015.8 - 0.0 - Partly cloudy - - - - -
21/05:00am 23.8 E 5 8 1015.6 - 0.0 - Partly cloudy - - - - -
21/04:30am 24.1 ENE 5 8 1015.3 - 0.0 - Partly cloudy - - - - -
21/04:00am 24.4 ENE 5 8 1015.0 - 0.0 - - - - - - -
21/03:30am 24.7 ENE 5 8 1014.9 - 0.0 - Partly cloudy - - - - -
21/03:00am 24.8 E 4 6 1014.9 - 0.0 - Mostly clear - - - - -
21/02:30am 25.3 ENE 5 8 1014.9 - 0.0 - - - - - - -
21/02:00am 25.9 ENE 7 11 1014.9 - 0.0 - - - - - - -
21/01:30am 26.2 E 6 11 1015.0 - 0.0 - Partly cloudy - - - - -
21/01:00am 25.4 E 4 6 1015.1 - 0.0 - Partly cloudy - - - - -
21/12:30am 25.4 NE 1 4 1015.1 - 0.0 - Partly cloudy - - - - -
21/12:00am 25.6 N 3 4 1015.1 - 0.0 - Cloudy - - - - -
 
Date/Time
EST
Temp

°C
Wind Pressure Rain
since 9am
mm
Weather Cloud Vis
km
Sea
Height
m
Swell
Dir
 
Speed
knots
Gust
knots
hPa Trend Height
m
Period
s
Dir
20/11:30pm 25.7 NE 4 5 1015.3 - 0.0 - Cloudy - - - - -
20/11:00pm 24.6 ENE 4 5 1015.1 - 0.0 - Partly cloudy - - - - -
20/10:30pm 25.1 E 4 7 1014.9 - 0.0 - - - - - - -
20/10:00pm 24.9 NE 5 7 1014.2 - 0.0 - - - - - - -
20/09:30pm 25.4 S 1 5 1013.3 - 0.0 - Partly cloudy - - - - -
20/09:00pm 25.7 SW 4 6 1013.1 - 0.0 - Mostly cloudy - - - - -
20/08:30pm 26.1 SSW 5 7 1013.0 - 0.0 - Partly cloudy - - - - -
20/08:00pm 26.4 SSW 7 9 1012.6 - 0.0 - - - - - - -
20/07:30pm 27.0 SW 8 12 1012.4 - 0.0 - - - - - - -
20/07:00pm 27.5 SW 9 13 1012.2 - 0.0 - - - - - - -
20/06:30pm 28.5 SW 12 16 1011.8 - 0.0 - - - - - - -
20/06:00pm 29.8 SW 11 16 1011.4 - 0.0 - - - - - - -
20/05:30pm 31.1 WSW 11 16 1011.0 - 0.0 - - - - - - -
20/05:00pm 32.4 W 12 16 1010.4 - 0.0 - - - - - - -
20/04:30pm 35.2 SW 6 8 1010.3 - 0.0 - - - - - - -
20/04:00pm 35.3 NE 4 7 1010.5 - 0.0 - - - - - - -
20/03:30pm 34.3 E 7 9 1010.7 - 0.0 - - - - - - -
20/03:00pm 34.3 SE 10 18 1011.1 - 0.0 - - - - - - -
20/02:30pm 35.1 SSE 12 17 1011.4 - 0.0 - - - - - - -
20/02:00pm 34.6 S 12 15 1011.9 - 0.0 - - - - - - -
20/01:30pm 34.1 SE 7 12 1012.5 - 0.0 - - - - - - -
20/01:00pm 33.5 S 13 17 1013.2 - 0.0 - - - - - - -
20/12:30pm 33.5 SE 12 19 1013.9 - 0.0 - - - - - - -
20/12:00pm 32.6 ESE 8 14 1014.4 - 0.0 - - - - - - -
20/11:30am 32.3 E 10 16 1015.2 - 0.0 - - - - - - -
20/11:00am 30.9 E 9 14 1015.5 - 0.0 - - - - - - -
20/10:30am 30.3 ESE 9 14 1015.7 - 0.0 - - - - - - -
20/10:00am 29.1 ESE 10 13 1016.2 - 0.0 - - - - - - -
20/09:30am 28.5 E 8 13 1016.5 - 0.0 - - - - - - -
20/09:00am 26.9 ESE 9 16 1016.7 - 0.0 - - - - - - -
20/08:30am 26.7 ESE 9 15 1017.0 - 0.0 - - - - - - -
20/08:00am 25.7 ESE 9 13 1016.9 - 0.0 - - - - - - -
20/07:30am 24.9 ESE 8 11 1016.9 - 0.0 - - - - - - -
20/07:00am 23.7 E 4 6 1016.7 - 0.0 - - - - - - -
20/06:30am 22.7 E 4 5 1016.3 - 0.0 - - - - - - -
20/06:00am 22.7 E 5 7 1016.1 - 0.0 - - - - - - -
20/05:30am 23.0 E 4 6 1015.7 - 0.0 - - - - - - -
20/05:00am 23.5 E 5 8 1015.4 - 0.0 - - - - - - -
20/04:30am 23.8 E 6 9 1015.1 - 0.0 - - - - - - -
20/04:00am 23.6 ESE 5 7 1015.0 - 0.0 - - - - - - -
20/03:30am 23.6 E 3 5 1014.9 - 0.0 - - - - - - -
20/03:00am 23.8 E 4 5 1014.9 - 0.0 - - - - - - -
20/02:30am 24.5 E 3 4 1015.0 - 0.0 - - - - - - -
20/02:00am 25.2 E 4 7 1015.2 - 0.0 - Partly cloudy - - - - -
20/01:30am 25.8 ENE 6 10 1015.3 - 0.0 - - - - - - -
20/01:00am 26.4 NE 7 14 1015.3 - 0.0 - - - - - - -
20/12:30am 26.8 ENE 7 11 1015.4 - 0.0 - - - - - - -
20/12:00am 27.4 ENE 7 11 1015.6 - 0.0 - - - - - - -
 
Date/Time
EST
Temp

°C
Wind Pressure Rain
since 9am
mm
Weather Cloud Vis
km
Sea
Height
m
Swell
Dir
 
Speed
knots
Gust
knots
hPa Trend Height
m
Period
s
Dir
19/11:30pm 27.7 ENE 7 15 1015.5 - 0.0 - Partly cloudy - - - - -
19/11:00pm 25.3 ENE 5 8 1015.5 - 0.0 - Partly cloudy - - - - -
19/10:30pm 23.7 CALM 0 0 1015.5 - 0.0 - Cloudy - - - - -
19/10:00pm 24.5 CALM 0 0 1015.2 - 0.0 - Partly cloudy - - - - -
19/09:30pm 25.0 SSE 3 5 1014.9 - 0.0 - Partly cloudy - - - - -
19/09:00pm 25.0 E 2 6 1014.3 - 0.0 - - - - - - -
19/08:30pm 25.6 SW 5 7 1013.4 - 0.0 - - - - - - -
19/08:00pm 26.1 SW 7 10 1013.0 - 0.0 - Partly cloudy - - - - -
19/07:30pm 26.7 SW 7 10 1012.6 - 0.0 - - - - - - -
19/07:00pm 27.3 WSW 9 14 1012.2 - 0.0 - - - - - - -
19/06:30pm 28.7 SW 9 13 1011.8 - 0.0 - - - - - - -
19/06:23pm 29.1 SW 9 13 1011.7 - 0.0 - - - - - - -
19/06:00pm 34.1 SSE 7 11 1011.2 - 0.0 - - - - - - -
19/05:30pm 34.5 SSE 8 11 1010.8 - 0.0 - - - - - - -
19/05:00pm 35.0 SSE 8 11 1010.6 - 0.0 - Partly cloudy - - - - -
19/04:30pm 35.2 SE 10 14 1010.5 - 0.0 - - - - - - -
19/04:00pm 34.9 ESE 8 13 1010.5 - 0.0 - - - - - - -
19/03:30pm 35.1 ESE 11 16 1010.5 - 0.0 - - - - - - -
19/03:00pm 35.5 SSE 12 20 1010.7 - 0.0 - - - - - - -
19/02:30pm 35.6 SE 13 17 1011.2 - 0.0 - - - - - - -
19/02:00pm 34.0 SE 13 18 1011.7 - 0.0 - - - - - - -
19/01:30pm 34.7 SSE 11 17 1012.4 - 0.0 - - - - - - -
19/01:00pm 33.1 SSE 8 15 1013.1 - 0.0 - - - - - - -
19/12:30pm 32.9 E 10 16 1013.9 - 0.0 - - - - - - -
19/12:00pm 31.7 E 11 19 1014.5 - 0.0 - - - - - - -
19/11:30am 30.9 E 11 18 1015.2 - 0.0 - - - - - - -
19/11:00am 30.5 ESE 12 18 1015.7 - 0.0 - - - - - - -
19/10:30am 29.7 E 12 19 1016.0 - 0.0 - - - - - - -
19/10:00am 29.7 E 10 17 1016.4 - 0.0 - - - - - - -
19/09:30am 28.2 E 11 19 1016.6 - 0.0 - - - - - - -
19/09:00am 26.9 E 13 19 1016.9 - 0.0 - - - - - - -
19/08:30am 25.6 E 10 17 1017.2 - 0.0 - - - - - - -
19/08:00am 25.3 E 8 12 1017.3 - 0.0 - - - - - - -
19/07:30am 24.0 E 6 9 1016.9 - 0.0 - - - - - - -
19/07:00am 21.9 E 4 6 1016.7 - 0.0 - - - - - - -
19/06:30am 20.4 E 4 6 1016.4 - 0.0 - - - - - - -
19/06:00am 18.8 E 1 4 1016.0 - 0.0 - - - - - - -
19/05:30am 18.9 E 2 4 1015.7 - 0.0 - - - - - - -
19/05:00am 19.9 CALM 0 4 1015.4 - 0.0 - - - - - - -
19/04:30am 21.0 E 3 5 1015.2 - 0.0 - - - - - - -
19/04:00am 21.5 E 1 4 1015.0 - 0.0 - - - - - - -
19/03:30am 22.0 E 3 5 1015.0 - 0.0 - - - - - - -
19/03:00am 23.0 ENE 4 5 1015.0 - 0.0 - - - - - - -
19/02:30am 23.7 ENE 4 6 1015.2 - 0.0 - - - - - - -
19/02:00am 24.5 ENE 6 9 1015.4 - 0.0 - - - - - - -
19/01:30am 25.2 NE 7 11 1015.7 - 0.0 - - - - - - -
19/01:00am 26.0 ENE 9 15 1015.8 - 0.0 - Partly cloudy - - - - -
19/12:30am 26.3 ENE 6 11 1015.8 - 0.0 - Cloudy - - - - -
19/12:00am 26.9 NE 8 11 1015.7 - 0.0 - Cloudy - - - - -
 
Date/Time
EST
Temp

°C
Wind Pressure Rain
since 9am
mm
Weather Cloud Vis
km
Sea
Height
m
Swell
Dir
 
Speed
knots
Gust
knots
hPa Trend Height
m
Period
s
Dir
18/11:30pm 27.5 NE 9 13 1015.7 - 0.0 - Partly cloudy - - - - -
18/11:00pm 26.7 NNE 5 11 1015.7 - 0.0 - Partly cloudy - - - - -
18/10:30pm 27.0 E 3 5 1015.2 - 0.0 - - - - - - -
18/10:00pm 25.8 NE 10 17 1014.9 - 0.0 - Partly cloudy - - - - -
18/09:30pm 25.5 SSW 6 9 1013.6 - 0.0 - - - - - - -
18/09:00pm 25.8 SSW 5 9 1013.6 - 0.0 - - - - - - -

Other Formats:

Comma delimited format used in spreadsheet applications
http://www.bom.gov.au/fwo/IDQ60701/IDQ60701.94268.axf

JavaScript Object Notation format (JSON) in row-major order
http://www.bom.gov.au/fwo/IDQ60701/IDQ60701.94268.json